KSEM/SEM METAR and TAF weather

Enter ICAO airport designator
Station Type Date Time Source
KSEM METAR 2022/06/25 22:15 UTC NOAA

KSEM 252215Z AUTO 05005KT 10SM CLR 28/22 A2999 RMK AO2 LTG DSNT NE AND NW


Station Type Date Time Source
KSEM Decoded METAR 2022/06/25 22:15 UTC NOAA

Craig Field / Selma, AL, United States (KSEM) 32-21N 086-59W
Jun 25, 2022 - 06:15 PM EDT / 2022.06.25 2215 UTC
Wind: from the NE (050 degrees) at 6 MPH (5 KT):0
Visibility: 10 mile(s):0
Sky conditions: clear
Weather: Lightning observed
Temperature: 82 F (28 C)
Dew Point: 71 F (22 C)
Relative Humidity: 69%
Pressure (altimeter): 29.99 in. Hg (1015 hPa)
ob: KSEM 252215Z AUTO 05005KT 10SM CLR 28/22 A2999 RMK AO2 LTG DSNT NE AND NW
cycle: 22

Station Type Date Time Source
KSEM TAF UTC NOAA

Error!

Example: see airport list